createdAt,value
2018-07-05T00:01:22.105Z,5.07
2018-07-05T00:04:01.182Z,5.20
2018-07-05T00:06:40.166Z,5.20
2018-07-05T00:09:19.278Z,4.83
2018-07-05T00:11:58.425Z,4.00
2018-07-05T00:14:37.405Z,4.40
2018-07-05T00:17:16.506Z,5.30
2018-07-05T00:19:55.640Z,5.10
2018-07-05T00:22:34.844Z,5.00
2018-07-05T00:25:13.998Z,5.07
2018-07-05T00:28:07.850Z,5.07
2018-07-05T00:30:46.932Z,4.90
2018-07-05T00:33:25.927Z,4.53
2018-07-05T00:36:04.952Z,5.07
2018-07-05T00:38:43.998Z,5.07
2018-07-05T00:41:22.976Z,5.17
2018-07-05T00:44:02.063Z,4.63
2018-07-05T00:46:41.108Z,6.63
2018-07-05T00:49:20.218Z,4.43
2018-07-05T00:51:59.260Z,4.80
2018-07-05T00:54:38.155Z,5.03
2018-07-05T00:57:17.183Z,5.30
2018-07-05T00:59:56.274Z,4.60
2018-07-05T01:02:35.181Z,5.30
2018-07-05T01:05:14.366Z,5.40
2018-07-05T01:07:53.545Z,4.93
2018-07-05T01:10:32.676Z,5.20
2018-07-05T01:13:11.670Z,5.10
2018-07-05T01:15:50.572Z,5.40
2018-07-05T01:18:23.875Z,5.83
2018-07-05T01:21:02.795Z,5.33
2018-07-05T01:23:41.729Z,5.53
2018-07-05T01:26:20.728Z,4.60
2018-07-05T01:28:59.705Z,4.97
2018-07-05T01:31:38.862Z,5.10
2018-07-05T01:34:18.044Z,4.90
2018-07-05T01:36:57.104Z,4.80
2018-07-05T01:39:36.036Z,4.90
2018-07-05T01:42:15.187Z,5.10
2018-07-05T01:44:54.408Z,4.50
2018-07-05T01:47:33.440Z,5.03
2018-07-05T01:50:12.398Z,4.40
2018-07-05T01:52:51.425Z,4.40
2018-07-05T01:55:30.531Z,4.73
2018-07-05T01:58:09.541Z,4.53
2018-07-05T02:00:48.662Z,4.37
2018-07-05T02:03:27.886Z,4.50
2018-07-05T02:06:07.058Z,4.17
2018-07-05T02:08:46.028Z,4.47
2018-07-05T02:11:24.970Z,4.77
2018-07-05T02:14:04.095Z,5.57
2018-07-05T02:16:43.239Z,5.30
2018-07-05T02:19:22.240Z,4.10
2018-07-05T02:22:01.397Z,4.53
2018-07-05T02:24:40.374Z,4.90
2018-07-05T02:27:19.550Z,4.83
2018-07-05T02:29:58.646Z,4.90
2018-07-05T02:32:37.872Z,4.97
2018-07-05T02:35:17.148Z,5.70
2018-07-05T02:38:02.068Z,5.00
2018-07-05T02:40:41.056Z,4.90
2018-07-05T02:43:19.977Z,4.97
2018-07-05T02:45:59.039Z,4.83
2018-07-05T02:48:38.077Z,5.30
2018-07-05T02:51:17.049Z,5.07
2018-07-05T02:53:56.138Z,5.63
2018-07-05T02:56:35.206Z,5.80
2018-07-05T02:59:14.237Z,4.80
2018-07-05T03:01:53.155Z,5.20
2018-07-05T03:04:32.341Z,6.73
2018-07-05T03:07:11.238Z,6.27
2018-07-05T03:09:50.361Z,5.30
2018-07-05T03:12:29.582Z,5.37
2018-07-05T03:15:08.648Z,5.47
2018-07-05T03:17:47.533Z,5.00
2018-07-05T03:20:26.570Z,6.10
2018-07-05T03:23:05.693Z,5.97
2018-07-05T03:25:44.801Z,5.77
2018-07-05T03:28:23.875Z,5.10
2018-07-05T03:31:02.987Z,5.70
2018-07-05T03:33:42.096Z,4.87
2018-07-05T03:36:21.662Z,5.17
2018-07-05T03:39:00.792Z,5.20
2018-07-05T03:41:39.835Z,5.80
2018-07-05T03:44:18.840Z,5.47
2018-07-05T03:46:57.905Z,5.57
2018-07-05T03:49:37.017Z,5.47
2018-07-05T03:52:16.230Z,5.70
2018-07-05T03:54:55.348Z,5.00
2018-07-05T03:57:34.482Z,4.67
2018-07-05T04:00:13.514Z,5.27
2018-07-05T04:02:52.664Z,6.30
2018-07-05T04:05:31.816Z,5.20
2018-07-05T04:08:11.152Z,5.33
2018-07-05T04:10:50.179Z,5.77
2018-07-05T04:13:29.324Z,5.37
2018-07-05T04:16:08.478Z,5.90
2018-07-05T04:18:47.397Z,6.23
2018-07-05T04:21:26.349Z,6.33
2018-07-05T04:24:05.563Z,6.77
2018-07-05T04:26:44.544Z,6.90
2018-07-05T04:29:23.560Z,6.83
2018-07-05T04:32:02.582Z,7.10
2018-07-05T04:34:41.545Z,6.07
2018-07-05T04:37:20.647Z,6.63
2018-07-05T04:39:59.711Z,6.90
2018-07-05T04:42:38.763Z,8.03
2018-07-05T04:45:17.886Z,7.13
2018-07-05T04:47:57.091Z,7.53
2018-07-05T04:50:36.206Z,5.10
2018-07-05T04:53:15.279Z,7.30
2018-07-05T04:55:54.261Z,5.83
2018-07-05T04:58:33.477Z,8.03
2018-07-05T05:01:12.649Z,4.83
2018-07-05T05:03:51.814Z,10.37
2018-07-05T05:06:30.991Z,8.07
2018-07-05T05:09:10.142Z,6.40
2018-07-05T05:11:49.290Z,6.93
2018-07-05T05:14:28.281Z,7.30
2018-07-05T05:17:07.448Z,6.00
2018-07-05T05:19:46.616Z,5.60
2018-07-05T05:22:25.665Z,7.43
2018-07-05T05:24:58.781Z,6.90
2018-07-05T05:27:37.787Z,9.50
2018-07-05T05:30:16.805Z,7.10
2018-07-05T05:32:55.703Z,5.57
2018-07-05T05:35:34.722Z,5.90
2018-07-05T05:38:13.927Z,6.30
2018-07-05T05:40:52.781Z,12.23
2018-07-05T05:43:31.921Z,11.70
2018-07-05T05:46:10.905Z,7.00
2018-07-05T05:48:49.994Z,9.53
2018-07-05T05:51:29.181Z,6.27
2018-07-05T05:54:08.622Z,7.23
2018-07-05T05:56:48.059Z,9.73
2018-07-05T05:59:27.274Z,7.73
2018-07-05T06:02:06.528Z,6.40
2018-07-05T06:04:45.647Z,6.90
2018-07-05T06:07:24.766Z,6.93
2018-07-05T06:10:03.796Z,6.80
2018-07-05T06:12:42.768Z,6.40
2018-07-05T06:15:21.815Z,6.70
2018-07-05T06:18:00.779Z,6.13
2018-07-05T06:20:39.811Z,6.80
2018-07-05T06:23:18.756Z,6.23
2018-07-05T06:25:57.817Z,9.00
2018-07-05T06:28:36.905Z,5.87
2018-07-05T06:31:15.904Z,5.40
2018-07-05T06:33:54.814Z,5.40
2018-07-05T06:36:33.873Z,5.50
2018-07-05T06:39:12.986Z,6.13
2018-07-05T06:41:46.833Z,5.60
2018-07-05T06:44:25.852Z,5.10
2018-07-05T06:47:04.962Z,5.50
2018-07-05T06:49:44.084Z,5.40
2018-07-05T06:52:23.136Z,6.50
2018-07-05T06:55:02.440Z,5.33
2018-07-05T06:57:41.829Z,5.70
2018-07-05T07:00:21.112Z,6.00
2018-07-05T07:03:00.159Z,5.50
2018-07-05T07:05:39.416Z,5.17
2018-07-05T07:08:18.391Z,5.07
2018-07-05T07:10:57.526Z,4.07
2018-07-05T07:13:36.665Z,3.10
2018-07-05T07:16:15.675Z,3.20
2018-07-05T07:18:55.141Z,3.90
2018-07-05T07:21:34.102Z,3.73
2018-07-05T07:24:13.332Z,2.37
2018-07-05T07:26:52.646Z,3.20
2018-07-05T07:29:31.699Z,3.10
2018-07-05T07:32:10.884Z,3.50
2018-07-05T07:34:49.977Z,3.30
2018-07-05T07:37:29.063Z,3.50
2018-07-05T07:40:08.097Z,2.90
2018-07-05T07:42:35.092Z,3.63
2018-07-05T07:45:01.621Z,3.10
2018-07-05T07:47:28.192Z,3.17
2018-07-05T07:49:55.162Z,3.33
2018-07-05T07:52:21.812Z,3.30
2018-07-05T07:54:48.514Z,3.00
2018-07-05T07:57:15.028Z,2.90
2018-07-05T07:59:41.530Z,3.97
2018-07-05T08:02:08.205Z,2.93
2018-07-05T08:04:34.770Z,3.27
2018-07-05T08:07:01.301Z,4.30
2018-07-05T08:09:27.869Z,15.53
2018-07-05T08:11:54.412Z,3.20
2018-07-05T08:14:20.967Z,3.80
2018-07-05T08:16:47.513Z,3.00
2018-07-05T08:19:14.106Z,3.13
2018-07-05T08:21:40.658Z,2.60
2018-07-05T08:24:07.214Z,2.40
2018-07-05T08:26:33.738Z,2.30
2018-07-05T08:29:00.263Z,1.93
2018-07-05T08:31:26.832Z,1.80
2018-07-05T08:33:53.341Z,2.17
2018-07-05T08:36:19.906Z,1.83
2018-07-05T08:38:46.458Z,1.83
2018-07-05T08:41:12.993Z,2.77
2018-07-05T08:43:39.510Z,2.30
2018-07-05T08:46:06.074Z,2.70
2018-07-05T08:48:32.645Z,2.70
2018-07-05T08:50:59.177Z,2.20
2018-07-05T08:53:25.732Z,2.30
2018-07-05T08:55:52.255Z,2.40
2018-07-05T08:58:18.793Z,2.40
2018-07-05T09:00:45.358Z,2.63
2018-07-05T09:03:11.889Z,2.67
2018-07-05T09:05:38.388Z,2.60
2018-07-05T09:08:04.960Z,2.60
2018-07-05T09:10:31.495Z,3.47
2018-07-05T09:12:58.037Z,2.70
2018-07-05T09:15:24.581Z,3.10
2018-07-05T09:17:51.288Z,2.83
2018-07-05T09:20:17.688Z,3.60
2018-07-05T09:22:44.329Z,7.60
2018-07-05T09:25:10.847Z,3.10
2018-07-05T09:27:37.421Z,3.10
2018-07-05T09:30:03.996Z,2.90
2018-07-05T09:35:03.731Z,3.13
2018-07-05T09:37:30.348Z,3.33
2018-07-05T09:39:56.813Z,2.97
2018-07-05T09:42:23.347Z,3.00
2018-07-05T09:44:49.900Z,2.80
2018-07-05T09:47:16.472Z,3.93
2018-07-05T09:49:43.210Z,3.40
2018-07-05T09:52:09.778Z,4.00
2018-07-05T09:54:36.308Z,4.77
2018-07-05T09:57:02.852Z,3.10
2018-07-05T09:59:29.378Z,2.80
2018-07-05T10:01:55.912Z,2.57
2018-07-05T10:04:22.427Z,3.13
2018-07-05T10:06:49.013Z,4.73
2018-07-05T10:09:15.551Z,2.57
2018-07-05T10:11:42.068Z,3.10
2018-07-05T10:14:08.607Z,3.60
2018-07-05T10:16:35.125Z,3.17
2018-07-05T10:19:01.675Z,3.03
2018-07-05T10:21:28.234Z,3.80
2018-07-05T10:23:54.734Z,3.50
2018-07-05T10:26:21.315Z,3.20
2018-07-05T10:29:00.507Z,3.27
2018-07-05T10:31:39.621Z,3.13
2018-07-05T10:34:06.201Z,2.97
2018-07-05T10:36:32.765Z,2.73
2018-07-05T10:38:59.744Z,3.07
2018-07-05T10:41:38.968Z,3.40
2018-07-05T10:44:18.040Z,2.90
2018-07-05T10:46:57.094Z,3.20
2018-07-05T10:49:36.242Z,3.90
2018-07-05T10:52:15.423Z,3.67
2018-07-05T10:54:54.554Z,3.00
2018-07-05T10:57:33.694Z,3.03
2018-07-05T11:00:12.719Z,2.93
2018-07-05T11:02:51.860Z,3.47
2018-07-05T11:05:30.823Z,3.10
2018-07-05T11:08:09.956Z,2.60
2018-07-05T11:10:48.865Z,2.40
2018-07-05T11:13:28.006Z,3.13
2018-07-05T11:16:07.126Z,3.43
2018-07-05T11:18:46.159Z,9.27
2018-07-05T11:21:25.294Z,3.73
2018-07-05T11:24:04.744Z,2.77
2018-07-05T11:26:43.964Z,2.80
2018-07-05T11:29:23.470Z,3.10
2018-07-05T11:32:02.590Z,3.90
2018-07-05T11:34:41.786Z,2.80
2018-07-05T11:37:20.817Z,4.23
2018-07-05T11:39:59.918Z,3.20
2018-07-05T11:42:33.173Z,3.50
2018-07-05T11:45:12.437Z,3.20
2018-07-05T11:47:51.481Z,3.50
2018-07-05T11:50:30.671Z,4.80
2018-07-05T11:53:09.885Z,3.17
2018-07-05T11:55:48.976Z,7.40
2018-07-05T11:58:28.096Z,3.73
2018-07-05T12:01:07.412Z,3.70
2018-07-05T12:03:46.574Z,3.97
2018-07-05T12:06:25.697Z,3.23
2018-07-05T12:09:05.943Z,4.17
2018-07-05T12:11:45.141Z,8.47
2018-07-05T12:14:24.110Z,4.10
2018-07-05T12:17:03.216Z,4.27
2018-07-05T12:19:42.350Z,3.73
2018-07-05T12:22:21.375Z,3.57
2018-07-05T12:25:00.364Z,2.83
2018-07-05T12:27:39.469Z,3.80
2018-07-05T12:30:18.473Z,3.27
2018-07-05T12:32:57.488Z,3.17
2018-07-05T12:35:36.571Z,3.73
2018-07-05T12:38:15.656Z,3.23
2018-07-05T12:40:54.629Z,3.63
2018-07-05T12:43:33.925Z,4.33
2018-07-05T12:46:13.123Z,4.73
2018-07-05T12:48:52.256Z,3.30
2018-07-05T12:51:31.426Z,6.53
2018-07-05T12:54:10.511Z,4.80
2018-07-05T12:56:49.876Z,3.90
2018-07-05T12:59:28.879Z,3.40
2018-07-05T13:02:08.254Z,3.90
2018-07-05T13:04:47.276Z,2.80
2018-07-05T13:07:26.201Z,2.83
2018-07-05T13:10:05.328Z,3.30
2018-07-05T13:12:44.452Z,2.30
2018-07-05T13:15:23.522Z,2.80
2018-07-05T13:18:02.384Z,2.33
2018-07-05T13:20:41.424Z,4.13
2018-07-05T13:23:20.602Z,3.40
2018-07-05T13:25:59.527Z,9.87
2018-07-05T13:28:38.529Z,8.27
2018-07-05T13:31:17.505Z,8.30
2018-07-05T13:33:56.500Z,2.93
2018-07-05T13:36:35.458Z,3.27
2018-07-05T13:39:14.496Z,3.43
2018-07-05T13:41:53.654Z,3.10
2018-07-05T13:44:32.625Z,2.67
2018-07-05T13:47:11.754Z,2.30
2018-07-05T13:49:50.752Z,3.33
2018-07-05T13:52:29.765Z,2.10
2018-07-05T13:55:08.736Z,2.20
2018-07-05T13:57:47.810Z,4.00
2018-07-05T14:00:26.990Z,1.77
2018-07-05T14:03:06.128Z,2.40
2018-07-05T14:05:45.132Z,2.87
2018-07-05T14:08:24.355Z,2.73
2018-07-05T14:11:03.260Z,2.00
2018-07-05T14:13:42.228Z,2.47
2018-07-05T14:16:21.389Z,2.17
2018-07-05T14:19:00.658Z,2.30
2018-07-05T14:21:39.858Z,2.73
2018-07-05T14:24:19.045Z,2.67
2018-07-05T14:26:57.963Z,2.47
2018-07-05T14:29:37.091Z,2.60
2018-07-05T14:32:16.121Z,3.00
2018-07-05T14:34:55.362Z,3.17
2018-07-05T14:37:34.460Z,3.00
2018-07-05T14:40:13.738Z,2.93
2018-07-05T14:42:52.781Z,2.93
2018-07-05T14:45:31.890Z,2.97
2018-07-05T14:48:11.033Z,3.30
2018-07-05T14:50:50.154Z,3.23
2018-07-05T14:53:29.184Z,2.70
2018-07-05T14:56:08.248Z,3.63
2018-07-05T14:58:47.308Z,3.40
2018-07-05T15:01:26.183Z,3.17
2018-07-05T15:04:05.235Z,3.40
2018-07-05T15:06:44.388Z,3.17
2018-07-05T15:09:23.624Z,2.90
2018-07-05T15:12:02.649Z,2.83
2018-07-05T15:14:41.858Z,3.13
2018-07-05T15:17:21.384Z,6.03
2018-07-05T15:20:00.356Z,2.17
2018-07-05T15:22:39.391Z,3.03
2018-07-05T15:25:18.513Z,3.00
2018-07-05T15:27:57.597Z,2.80
2018-07-05T15:30:36.607Z,3.47
2018-07-05T15:33:15.644Z,3.77
2018-07-05T15:35:54.793Z,3.60
2018-07-05T15:38:33.758Z,3.33
2018-07-05T15:41:13.036Z,3.77
2018-07-05T15:43:52.113Z,2.30
2018-07-05T15:46:31.172Z,3.40
2018-07-05T15:49:10.221Z,3.30
2018-07-05T15:51:49.342Z,3.43
2018-07-05T15:54:28.338Z,3.23
2018-07-05T15:57:07.359Z,3.00
2018-07-05T15:59:46.638Z,2.57
2018-07-05T16:02:25.535Z,2.73
2018-07-05T16:05:04.596Z,3.10
2018-07-05T16:07:43.821Z,2.60
2018-07-05T16:10:23.058Z,3.83
2018-07-05T16:13:02.172Z,3.40
2018-07-05T16:15:41.332Z,5.03
2018-07-05T16:18:20.502Z,3.50
2018-07-05T16:20:59.557Z,3.50
2018-07-05T16:23:38.729Z,2.80
2018-07-05T16:26:17.755Z,2.50
2018-07-05T16:28:56.816Z,2.77
2018-07-05T16:31:35.840Z,2.80
2018-07-05T16:34:15.044Z,3.27
2018-07-05T16:36:53.959Z,4.17
2018-07-05T16:39:33.077Z,5.20
2018-07-05T16:42:12.314Z,4.67
2018-07-05T16:44:51.389Z,7.23
2018-07-05T16:47:24.655Z,4.40
2018-07-05T16:50:03.883Z,4.50
2018-07-05T16:52:42.976Z,3.83
2018-07-05T16:55:22.086Z,4.27
2018-07-05T16:58:01.118Z,4.83
2018-07-05T17:00:40.192Z,4.10
2018-07-05T17:03:19.430Z,5.00
2018-07-05T17:05:58.482Z,4.17
2018-07-05T17:08:37.607Z,5.20
2018-07-05T17:11:16.781Z,4.20
2018-07-05T17:13:55.819Z,3.90
2018-07-05T17:16:34.962Z,4.07
2018-07-05T17:19:14.013Z,4.40
2018-07-05T17:21:53.053Z,8.87
2018-07-05T17:24:32.258Z,6.07
2018-07-05T17:27:11.255Z,4.57
2018-07-05T17:29:50.764Z,4.13
2018-07-05T17:32:29.617Z,3.80
2018-07-05T17:35:08.777Z,4.40
2018-07-05T17:37:47.786Z,3.53
2018-07-05T17:40:26.644Z,3.90
2018-07-05T17:43:05.724Z,3.50
2018-07-05T17:45:44.937Z,3.93
2018-07-05T17:48:23.877Z,4.33
2018-07-05T17:51:02.945Z,4.70
2018-07-05T17:53:42.025Z,4.17
2018-07-05T17:56:21.280Z,4.40
2018-07-05T17:59:00.454Z,4.90
2018-07-05T18:01:39.601Z,4.47
2018-07-05T18:04:18.737Z,5.27
2018-07-05T18:06:57.709Z,4.80
2018-07-05T18:09:36.615Z,4.93
2018-07-05T18:12:15.728Z,5.20
2018-07-05T18:14:54.853Z,5.10
2018-07-05T18:17:33.973Z,5.27
2018-07-05T18:20:12.849Z,4.77
2018-07-05T18:22:52.065Z,4.80
2018-07-05T18:25:30.996Z,4.57
2018-07-05T18:28:10.133Z,4.90
2018-07-05T18:30:49.136Z,5.10
2018-07-05T18:33:28.366Z,5.60
2018-07-05T18:36:07.543Z,5.60
2018-07-05T18:38:46.698Z,4.80
2018-07-05T18:41:26.089Z,5.20
2018-07-05T18:43:59.406Z,5.80
2018-07-05T18:46:38.505Z,4.87
2018-07-05T18:49:17.623Z,4.70
2018-07-05T18:51:56.588Z,5.10
2018-07-05T18:54:35.823Z,4.60
2018-07-05T18:57:14.971Z,3.93
2018-07-05T18:59:53.969Z,4.90
2018-07-05T19:02:33.142Z,3.80
2018-07-05T19:05:12.203Z,3.77
2018-07-05T19:07:51.258Z,4.03
2018-07-05T19:10:30.458Z,5.17
2018-07-05T19:13:09.539Z,4.90
2018-07-05T19:15:48.622Z,4.37
2018-07-05T19:18:27.561Z,4.77
2018-07-05T19:21:06.667Z,5.00
2018-07-05T19:23:45.850Z,5.30
2018-07-05T19:26:24.962Z,5.37
2018-07-05T19:29:04.036Z,5.07
2018-07-05T19:31:43.018Z,5.70
2018-07-05T19:34:22.186Z,5.27
2018-07-05T19:37:01.134Z,4.93
2018-07-05T19:39:40.292Z,4.90
2018-07-05T19:42:19.497Z,5.30
2018-07-05T19:44:58.530Z,6.07
2018-07-05T19:47:37.623Z,6.30
2018-07-05T19:50:16.526Z,5.60
2018-07-05T19:52:55.652Z,5.80
2018-07-05T19:55:34.460Z,7.57
2018-07-05T19:58:13.613Z,5.73
2018-07-05T20:00:52.597Z,6.40
2018-07-05T20:03:31.842Z,5.40
2018-07-05T20:06:10.910Z,4.97
2018-07-05T20:08:50.164Z,5.70
2018-07-05T20:11:29.304Z,6.10
2018-07-05T20:14:08.433Z,5.90
2018-07-05T20:16:47.503Z,5.40
2018-07-05T20:19:26.709Z,5.40
2018-07-05T20:22:10.271Z,4.97
2018-07-05T20:24:49.383Z,6.20
2018-07-05T20:27:28.243Z,5.70
2018-07-05T20:30:07.488Z,5.53
2018-07-05T20:32:46.550Z,6.40
2018-07-05T20:35:25.715Z,5.80
2018-07-05T20:38:04.883Z,5.90
2018-07-05T20:40:44.118Z,6.63
2018-07-05T20:43:23.221Z,5.70
2018-07-05T20:46:02.363Z,6.73
2018-07-05T20:48:41.455Z,5.73
2018-07-05T20:51:20.635Z,6.30
2018-07-05T20:53:59.895Z,5.73
2018-07-05T20:56:38.975Z,6.30
2018-07-05T20:59:18.757Z,5.47
2018-07-05T21:01:57.761Z,6.37
2018-07-05T21:04:36.835Z,6.47
2018-07-05T21:07:16.034Z,6.60
2018-07-05T21:09:55.190Z,6.37
2018-07-05T21:12:34.353Z,5.70
2018-07-05T21:15:13.253Z,6.10
2018-07-05T21:17:52.393Z,6.50
2018-07-05T21:20:31.618Z,5.73
2018-07-05T21:23:04.893Z,6.10
2018-07-05T21:25:43.957Z,7.70
2018-07-05T21:28:23.172Z,7.30
2018-07-05T21:31:02.326Z,6.17
2018-07-05T21:33:41.464Z,6.70
2018-07-05T21:36:20.394Z,6.17
2018-07-05T21:38:59.388Z,6.40
2018-07-05T21:41:38.386Z,6.27
2018-07-05T21:44:11.682Z,6.60
2018-07-05T21:46:50.720Z,6.13
2018-07-05T21:49:29.622Z,6.90
2018-07-05T21:52:08.817Z,6.80
2018-07-05T21:54:47.937Z,6.73
2018-07-05T21:57:27.093Z,6.87
2018-07-05T22:00:06.230Z,7.80
2018-07-05T22:02:45.423Z,7.50
2018-07-05T22:05:24.474Z,6.47
2018-07-05T22:08:03.406Z,7.07
2018-07-05T22:10:42.550Z,7.13
2018-07-05T22:13:21.755Z,6.60
2018-07-05T22:16:01.113Z,8.50
2018-07-05T22:18:46.150Z,6.90
2018-07-05T22:21:25.633Z,7.33
2018-07-05T22:24:10.718Z,7.43
2018-07-05T22:26:49.717Z,7.40
2018-07-05T22:29:34.538Z,7.27
2018-07-05T22:32:13.726Z,7.13
2018-07-05T22:34:52.897Z,7.50
2018-07-05T22:37:32.041Z,6.80
2018-07-05T22:40:11.153Z,6.87
2018-07-05T22:42:50.257Z,6.97
2018-07-05T22:45:29.110Z,7.10
2018-07-05T22:48:08.168Z,6.80
2018-07-05T22:50:47.238Z,7.03
2018-07-05T22:53:26.458Z,7.60
2018-07-05T22:56:05.529Z,7.13
2018-07-05T22:58:44.604Z,7.10
2018-07-05T23:01:23.719Z,7.07
2018-07-05T23:04:02.821Z,7.33
2018-07-05T23:06:41.863Z,6.67
2018-07-05T23:09:20.887Z,7.50
2018-07-05T23:12:00.140Z,6.87
2018-07-05T23:14:39.276Z,6.70
2018-07-05T23:17:18.530Z,6.57
2018-07-05T23:19:57.574Z,7.10
2018-07-05T23:22:36.714Z,7.60
2018-07-05T23:25:15.797Z,5.80
2018-07-05T23:27:54.667Z,6.97
2018-07-05T23:30:33.635Z,7.23
2018-07-05T23:33:12.846Z,7.47
2018-07-05T23:35:51.888Z,7.23
2018-07-05T23:38:30.858Z,7.20
2018-07-05T23:41:09.970Z,6.83
2018-07-05T23:43:48.869Z,7.17
2018-07-05T23:46:27.833Z,7.70
2018-07-05T23:49:06.901Z,7.97
2018-07-05T23:51:45.868Z,7.50
2018-07-05T23:54:24.824Z,8.30
2018-07-05T23:57:03.910Z,7.60
2018-07-05T23:59:42.921Z,7.33
